Time;durP1;ratioP1;P1;durP2;ratioP2;P2;SDS_P1;SDS_P2;PMS_P1;PMS_P2;Temp;Humidity;BMP_temperature;BMP_pressure;BME280_temperature;BME280_humidity;BME280_pressure;Samples;Min_cycle;Max_cycle;Signal;HPM_P1;HPM_P2
2021/10/16 00:00:49;;;;;;;12.00;9.50;;;;;;;;;;6247279;23;20007;-65
2021/10/16 00:03:19;;;;;;;9.77;7.88;;;;;;;;;;6219371;23;20012;-65
2021/10/16 00:05:45;;;;;;;7.03;6.30;;;;;;;;;;6247580;22;20046;-65
2021/10/16 00:08:10;;;;;;;4.15;3.20;;;;;;;;;;6247563;23;20090;-65
2021/10/16 00:10:36;;;;;;;1.67;1.58;;;;;;;;;;6247349;23;20381;-65
2021/10/16 00:13:02;;;;;;;2.38;2.17;;;;;;;;;;6247633;22;20004;-65
2021/10/16 00:15:28;;;;;;;2.75;2.53;;;;;;;;;;6247065;22;20065;-66
2021/10/16 00:17:54;;;;;;;3.28;2.97;;;;;;;;;;6247268;22;20501;-66
2021/10/16 00:20:19;;;;;;;2.08;1.88;;;;;;;;;;6247262;23;20429;-66
2021/10/16 00:22:45;;;;;;;3.22;2.00;;;;;;;;;;6245496;23;20425;-67
2021/10/16 00:25:10;;;;;;;3.50;2.60;;;;;;;;;;6246818;22;19996;-60
2021/10/16 00:27:36;;;;;;;2.33;2.13;;;;;;;;;;6247412;22;20083;-67
2021/10/16 00:30:02;;;;;;;4.65;3.83;;;;;;;;;;6247454;23;19999;-67
2021/10/16 00:32:27;;;;;;;2.60;2.00;;;;;;;;;;6245739;23;20012;-67
2021/10/16 00:34:53;;;;;;;1.77;1.50;;;;;;;;;;6247101;22;20000;-67
2021/10/16 00:37:20;;;;;;;1.65;1.25;;;;;;;;;;6247219;22;20004;-67
2021/10/16 00:39:45;;;;;;;1.50;1.30;;;;;;;;;;6245679;23;19996;-67
2021/10/16 00:42:12;;;;;;;3.47;2.65;;;;;;;;;;6246876;22;20062;-67
2021/10/16 00:44:39;;;;;;;4.10;3.70;;;;;;;;;;6245397;23;19996;-66
2021/10/16 00:47:05;;;;;;;4.00;3.33;;;;;;;;;;6245543;23;20022;-66
2021/10/16 00:49:32;;;;;;;6.03;4.63;;;;;;;;;;6245563;23;20057;-66
2021/10/16 00:51:59;;;;;;;2.83;2.53;;;;;;;;;;6246979;22;20367;-66
2021/10/16 00:54:25;;;;;;;2.47;2.28;;;;;;;;;;6244674;23;20020;-66
2021/10/16 00:56:52;;;;;;;3.28;2.40;;;;;;;;;;6247257;22;20016;-67
2021/10/16 00:59:18;;;;;;;2.22;1.70;;;;;;;;;;6247287;22;20004;-67
2021/10/16 01:01:45;;;;;;;2.22;1.98;;;;;;;;;;6245311;23;20066;-67
2021/10/16 01:04:10;;;;;;;1.38;1.27;;;;;;;;;;6245361;23;20014;-67
2021/10/16 01:06:42;;;;;;;1.88;1.77;;;;;;;;;;6245344;23;20000;-67
2021/10/16 01:09:08;;;;;;;4.45;3.33;;;;;;;;;;6245694;23;20361;-66
2021/10/16 01:11:36;;;;;;;5.53;3.90;;;;;;;;;;6245624;23;20011;-66
2021/10/16 01:14:05;;;;;;;2.35;2.15;;;;;;;;;;6244937;23;20000;-66
2021/10/16 01:16:31;;;;;;;2.20;2.00;;;;;;;;;;6245248;23;20000;-66
2021/10/16 01:18:57;;;;;;;1.95;1.83;;;;;;;;;;6245134;23;20519;-61
2021/10/16 01:21:22;;;;;;;1.83;1.65;;;;;;;;;;6246702;23;20003;-61
2021/10/16 01:23:48;;;;;;;1.45;1.35;;;;;;;;;;6244871;23;20012;-60
2021/10/16 01:26:14;;;;;;;2.65;1.50;;;;;;;;;;6246031;22;19996;-61
2021/10/16 01:28:41;;;;;;;1.73;1.33;;;;;;;;;;6246457;23;20060;-60
2021/10/16 01:31:07;;;;;;;2.67;1.50;;;;;;;;;;6245115;23;19999;-60
2021/10/16 01:33:34;;;;;;;2.10;1.73;;;;;;;;;;6245157;23;20011;-60
2021/10/16 01:36:00;;;;;;;2.33;1.80;;;;;;;;;;6246636;22;20004;-61
2021/10/16 01:38:27;;;;;;;1.95;1.45;;;;;;;;;;6246658;22;20008;-60
2021/10/16 01:40:53;;;;;;;2.97;1.67;;;;;;;;;;6245076;23;20014;-60
2021/10/16 01:43:26;;;;;;;3.00;1.85;;;;;;;;;;6246444;22;20461;-60
2021/10/16 01:45:55;;;;;;;2.65;1.70;;;;;;;;;;6244958;23;20008;-60
2021/10/16 01:48:25;;;;;;;2.03;1.80;;;;;;;;;;6244660;23;20461;-61
2021/10/16 01:50:51;;;;;;;1.80;1.67;;;;;;;;;;6244970;23;20004;-60
2021/10/16 01:53:23;;;;;;;1.92;1.40;;;;;;;;;;6220772;23;20015;-61
2021/10/16 01:55:55;;;;;;;2.35;1.40;;;;;;;;;;6244808;23;20057;-60
2021/10/16 01:58:23;;;;;;;3.22;1.60;;;;;;;;;;6244721;23;20016;-61
2021/10/16 02:01:10;;;;;;;1.73;1.52;;;;;;;;;;6245015;23;19999;-60
2021/10/16 02:03:37;;;;;;;1.65;1.55;;;;;;;;;;6244768;23;20008;-60
2021/10/16 02:06:08;;;;;;;2.28;1.40;;;;;;;;;;6244678;23;20378;-60
2021/10/16 02:08:34;;;;;;;2.97;1.70;;;;;;;;;;6244714;23;20448;-60
2021/10/16 02:11:00;;;;;;;2.80;1.90;;;;;;;;;;6246295;22;19992;-60
2021/10/16 02:13:33;;;;;;;3.55;1.60;;;;;;;;;;6244576;23;20420;-61
2021/10/16 02:16:04;;;;;;;1.70;1.50;;;;;;;;;;6244558;23;20016;-60
2021/10/16 02:18:40;;;;;;;1.98;1.50;;;;;;;;;;6244672;23;20472;-60
2021/10/16 02:21:06;;;;;;;2.13;1.40;;;;;;;;;;6244568;23;20038;-61
2021/10/16 02:23:33;;;;;;;2.20;1.33;;;;;;;;;;6244553;23;20000;-61
2021/10/16 02:25:59;;;;;;;2.08;1.40;;;;;;;;;;6244626;23;20007;-60
2021/10/16 02:28:28;;;;;;;1.63;1.10;;;;;;;;;;6220281;23;20078;-60
2021/10/16 02:31:14;;;;;;;1.92;1.60;;;;;;;;;;6245862;23;20238;-60
2021/10/16 02:33:39;;;;;;;3.20;1.48;;;;;;;;;;6244586;23;20341;-60
2021/10/16 02:36:06;;;;;;;2.55;1.30;;;;;;;;;;6244572;23;20488;-60
2021/10/16 02:38:32;;;;;;;4.95;1.30;;;;;;;;;;6246107;22;20032;-59
2021/10/16 02:40:57;;;;;;;2.45;1.50;;;;;;;;;;6244499;23;20310;-60
2021/10/16 02:43:23;;;;;;;3.63;1.30;;;;;;;;;;6245990;23;20004;-60
2021/10/16 02:45:49;;;;;;;2.10;1.35;;;;;;;;;;6244269;23;20000;-60
2021/10/16 02:48:15;;;;;;;1.67;1.23;;;;;;;;;;6244408;23;20027;-60
2021/10/16 02:50:41;;;;;;;2.30;1.33;;;;;;;;;;6244566;23;19996;-61
2021/10/16 02:53:07;;;;;;;3.30;1.50;;;;;;;;;;6244446;23;20001;-60
2021/10/16 02:55:32;;;;;;;2.42;1.45;;;;;;;;;;6244178;23;20020;-60
2021/10/16 02:58:00;;;;;;;4.22;1.50;;;;;;;;;;6244236;23;20012;-60
2021/10/16 03:00:29;;;;;;;1.55;1.20;;;;;;;;;;6244338;23;20046;-60
2021/10/16 03:02:57;;;;;;;3.00;1.38;;;;;;;;;;6244273;23;20004;-60
2021/10/16 03:05:22;;;;;;;2.22;1.30;;;;;;;;;;6244679;23;20317;-60
2021/10/16 03:07:48;;;;;;;3.08;1.27;;;;;;;;;;6243680;23;20083;-61
2021/10/16 03:10:14;;;;;;;2.00;1.30;;;;;;;;;;6246174;23;20410;-60
2021/10/16 03:12:40;;;;;;;2.35;1.33;;;;;;;;;;6244748;23;20008;-61
2021/10/16 03:15:05;;;;;;;3.22;1.50;;;;;;;;;;6244268;23;20455;-60
2021/10/16 03:17:35;;;;;;;2.95;1.77;;;;;;;;;;6243987;23;20054;-60
2021/10/16 03:20:02;;;;;;;3.10;1.23;;;;;;;;;;6244327;23;20004;-60
2021/10/16 03:22:27;;;;;;;2.78;1.20;;;;;;;;;;6244366;23;20087;-60
2021/10/16 03:24:54;;;;;;;2.10;1.63;;;;;;;;;;6218939;23;20002;-59
2021/10/16 03:27:20;;;;;;;3.30;1.55;;;;;;;;;;6244184;23;20000;-60
2021/10/16 03:29:46;;;;;;;3.25;1.38;;;;;;;;;;6219042;23;20016;-61
2021/10/16 03:32:11;;;;;;;2.88;1.30;;;;;;;;;;6244292;23;20007;-61
2021/10/16 03:34:38;;;;;;;1.92;1.30;;;;;;;;;;6244319;23;20000;-60
2021/10/16 03:37:04;;;;;;;1.98;1.20;;;;;;;;;;6244085;23;20062;-60
2021/10/16 03:39:32;;;;;;;2.58;1.33;;;;;;;;;;6244243;23;19996;-60
2021/10/16 03:41:57;;;;;;;5.00;1.33;;;;;;;;;;6244337;23;20041;-60
2021/10/16 03:44:23;;;;;;;3.70;1.42;;;;;;;;;;6244174;23;20122;-60
2021/10/16 03:46:48;;;;;;;3.13;1.60;;;;;;;;;;6244144;23;20009;-60
2021/10/16 03:49:15;;;;;;;3.03;1.33;;;;;;;;;;6244510;23;20000;-60
2021/10/16 03:51:41;;;;;;;3.72;1.75;;;;;;;;;;6246285;23;20004;-60
2021/10/16 03:54:06;;;;;;;4.15;1.48;;;;;;;;;;6247107;23;20055;-60
2021/10/16 03:56:33;;;;;;;2.60;1.60;;;;;;;;;;6245978;23;20000;-60
2021/10/16 03:58:59;;;;;;;3.83;2.00;;;;;;;;;;6245749;23;20000;-60
2021/10/16 04:01:25;;;;;;;4.32;1.60;;;;;;;;;;6247159;22;20036;-60
2021/10/16 04:03:50;;;;;;;1.45;1.35;;;;;;;;;;6245547;23;20079;-60
2021/10/16 04:06:16;;;;;;;2.45;1.50;;;;;;;;;;6245586;23;20004;-60
2021/10/16 04:08:42;;;;;;;3.22;1.52;;;;;;;;;;6246210;23;20003;-60
2021/10/16 04:11:07;;;;;;;2.90;1.65;;;;;;;;;;6246033;23;20087;-60
2021/10/16 04:13:33;;;;;;;2.28;1.33;;;;;;;;;;6245807;23;20004;-61
2021/10/16 04:15:59;;;;;;;1.98;1.45;;;;;;;;;;6245666;23;20043;-60
2021/10/16 04:18:25;;;;;;;2.25;1.40;;;;;;;;;;6245756;23;20031;-61
2021/10/16 04:20:51;;;;;;;2.42;1.38;;;;;;;;;;6245739;23;20008;-60
2021/10/16 04:23:17;;;;;;;3.28;1.85;;;;;;;;;;6247146;22;20081;-60
2021/10/16 04:25:42;;;;;;;3.15;1.50;;;;;;;;;;6245431;23;20012;-60
2021/10/16 04:28:09;;;;;;;1.88;1.55;;;;;;;;;;6244333;23;20376;-58
2021/10/16 04:30:46;;;;;;;2.72;1.33;;;;;;;;;;6245635;23;20046;-64
2021/10/16 04:33:11;;;;;;;2.30;1.55;;;;;;;;;;6245465;23;20008;-63
2021/10/16 04:35:39;;;;;;;2.33;2.03;;;;;;;;;;6245459;23;20004;-63
2021/10/16 04:38:05;;;;;;;5.07;1.60;;;;;;;;;;6245372;23;20142;-63
2021/10/16 04:40:32;;;;;;;2.42;1.70;;;;;;;;;;6245371;23;20035;-63
2021/10/16 04:43:01;;;;;;;2.33;1.65;;;;;;;;;;6245672;23;20035;-63
2021/10/16 04:45:27;;;;;;;2.97;1.70;;;;;;;;;;6220634;23;20028;-63
2021/10/16 04:47:55;;;;;;;3.78;1.88;;;;;;;;;;6245583;23;20008;-63
2021/10/16 04:50:21;;;;;;;3.13;1.67;;;;;;;;;;6245999;23;20079;-62
2021/10/16 04:52:47;;;;;;;2.95;1.80;;;;;;;;;;6245535;23;20008;-63
2021/10/16 04:55:23;;;;;;;2.72;1.83;;;;;;;;;;6245163;23;20067;-63
2021/10/16 04:57:50;;;;;;;2.42;1.83;;;;;;;;;;6246815;22;20012;-63
2021/10/16 05:00:17;;;;;;;3.10;1.75;;;;;;;;;;6245373;23;20075;-63
2021/10/16 05:02:43;;;;;;;2.60;1.77;;;;;;;;;;6245215;23;20012;-63
2021/10/16 05:05:09;;;;;;;3.85;1.77;;;;;;;;;;6245283;23;20429;-63
2021/10/16 05:07:37;;;;;;;3.17;1.77;;;;;;;;;;6245240;23;20007;-64
2021/10/16 05:10:05;;;;;;;2.75;1.92;;;;;;;;;;6245231;23;20000;-64
2021/10/16 05:12:30;;;;;;;2.97;2.08;;;;;;;;;;6245444;23;20008;-63
2021/10/16 05:14:56;;;;;;;4.00;2.05;;;;;;;;;;6245238;23;20468;-58
2021/10/16 05:17:24;;;;;;;2.60;1.88;;;;;;;;;;6245390;23;20037;-58
2021/10/16 05:19:49;;;;;;;3.15;2.00;;;;;;;;;;6245087;23;20007;-58
2021/10/16 05:22:15;;;;;;;3.70;2.05;;;;;;;;;;6219904;23;20016;-63
2021/10/16 05:24:40;;;;;;;3.60;2.15;;;;;;;;;;6244964;23;20421;-63
2021/10/16 05:27:06;;;;;;;3.83;2.35;;;;;;;;;;6245164;23;20015;-63
2021/10/16 05:29:32;;;;;;;4.65;2.63;;;;;;;;;;6245496;23;20436;-64
2021/10/16 05:31:58;;;;;;;3.60;2.38;;;;;;;;;;6247082;22;20000;-64
2021/10/16 05:34:24;;;;;;;3.95;2.67;;;;;;;;;;6244960;23;20000;-65
2021/10/16 05:36:52;;;;;;;3.40;2.83;;;;;;;;;;6244911;23;20060;-64
2021/10/16 05:39:18;;;;;;;5.55;4.07;;;;;;;;;;6245266;23;20000;-64
2021/10/16 05:41:44;;;;;;;5.07;3.25;;;;;;;;;;6245220;23;20036;-64
2021/10/16 05:44:11;;;;;;;5.88;3.15;;;;;;;;;;6245222;23;20004;-64
2021/10/16 05:46:37;;;;;;;4.45;3.88;;;;;;;;;;6245080;23;20038;-65
2021/10/16 05:49:05;;;;;;;5.15;4.35;;;;;;;;;;6245028;23;20078;-64
2021/10/16 05:51:32;;;;;;;11.52;7.70;;;;;;;;;;6245005;23;20524;-64
2021/10/16 05:53:59;;;;;;;9.40;5.85;;;;;;;;;;6244080;23;20004;-64
2021/10/16 05:56:25;;;;;;;5.55;4.50;;;;;;;;;;6244516;23;20336;-64
2021/10/16 05:58:51;;;;;;;8.30;5.43;;;;;;;;;;6244903;23;20087;-64
2021/10/16 06:01:17;;;;;;;5.93;5.18;;;;;;;;;;6245002;23;20035;-64
2021/10/16 06:03:49;;;;;;;7.07;5.35;;;;;;;;;;6244523;23;20420;-64
2021/10/16 06:06:15;;;;;;;4.82;4.28;;;;;;;;;;6244427;23;20015;-64
2021/10/16 06:08:41;;;;;;;9.02;4.57;;;;;;;;;;6244677;23;20003;-64
2021/10/16 06:11:09;;;;;;;5.32;4.40;;;;;;;;;;6244694;23;20008;-64
2021/10/16 06:13:34;;;;;;;6.22;4.35;;;;;;;;;;6244488;23;20365;-63
2021/10/16 06:16:00;;;;;;;8.13;4.63;;;;;;;;;;6244420;23;20015;-63
2021/10/16 06:18:26;;;;;;;6.03;4.65;;;;;;;;;;6244423;23;20000;-63
2021/10/16 06:20:53;;;;;;;9.02;5.85;;;;;;;;;;6244364;23;20008;-63
2021/10/16 06:23:19;;;;;;;10.05;6.68;;;;;;;;;;6244451;23;20015;-63
2021/10/16 06:25:44;;;;;;;9.07;6.35;;;;;;;;;;6244458;23;20008;-63
2021/10/16 06:28:14;;;;;;;8.95;5.75;;;;;;;;;;6246035;22;20010;-63
2021/10/16 06:30:41;;;;;;;8.60;5.55;;;;;;;;;;6244492;23;20004;-63
2021/10/16 06:33:08;;;;;;;11.65;6.63;;;;;;;;;;6244574;23;20380;-62
2021/10/16 06:35:37;;;;;;;9.25;5.80;;;;;;;;;;6244506;23;20019;-62
2021/10/16 06:38:13;;;;;;;10.48;5.65;;;;;;;;;;6244557;23;20067;-62
2021/10/16 06:40:39;;;;;;;6.90;5.53;;;;;;;;;;6244334;23;20016;-63
2021/10/16 06:43:24;;;;;;;6.28;4.45;;;;;;;;;;6244418;23;20004;-63
2021/10/16 06:46:12;;;;;;;7.90;5.15;;;;;;;;;;6245620;23;20083;-63
2021/10/16 06:48:47;;;;;;;8.23;4.90;;;;;;;;;;6244429;23;20337;-63
2021/10/16 06:51:19;;;;;;;6.50;4.72;;;;;;;;;;6244328;23;20008;-62
2021/10/16 06:53:45;;;;;;;7.53;4.55;;;;;;;;;;6244270;23;20455;-62
2021/10/16 06:56:11;;;;;;;7.00;4.25;;;;;;;;;;6244135;23;20016;-63
2021/10/16 06:58:36;;;;;;;7.50;4.57;;;;;;;;;;6244134;23;20435;-64
2021/10/16 07:01:02;;;;;;;7.85;4.43;;;;;;;;;;6244225;23;20010;-65
2021/10/16 07:03:43;;;;;;;4.88;3.85;;;;;;;;;;6244432;23;20008;-63
2021/10/16 07:06:10;;;;;;;7.25;4.30;;;;;;;;;;6244179;23;20019;-63
2021/10/16 07:08:35;;;;;;;7.38;4.05;;;;;;;;;;6244395;23;20022;-63
2021/10/16 07:11:01;;;;;;;5.22;3.78;;;;;;;;;;6245981;22;20440;-63
2021/10/16 07:13:27;;;;;;;7.07;3.75;;;;;;;;;;6245852;22;20023;-63
2021/10/16 07:15:52;;;;;;;4.10;3.78;;;;;;;;;;6245882;23;20004;-63
2021/10/16 07:18:18;;;;;;;5.20;3.80;;;;;;;;;;6245737;22;19996;-63
2021/10/16 07:20:43;;;;;;;6.07;4.03;;;;;;;;;;6245721;22;20087;-63
2021/10/16 07:23:09;;;;;;;6.50;3.90;;;;;;;;;;6244072;23;20004;-63
2021/10/16 07:25:34;;;;;;;6.22;4.40;;;;;;;;;;6246862;23;20015;-63
2021/10/16 07:28:00;;;;;;;6.47;4.45;;;;;;;;;;6246130;23;19999;-63
2021/10/16 07:30:25;;;;;;;6.30;4.18;;;;;;;;;;6247730;22;20054;-64
2021/10/16 07:32:51;;;;;;;7.43;4.35;;;;;;;;;;6247611;22;20000;-63
2021/10/16 07:35:16;;;;;;;5.15;3.85;;;;;;;;;;6247601;22;20075;-64
2021/10/16 07:37:42;;;;;;;7.53;4.30;;;;;;;;;;6247464;23;19996;-64
2021/10/16 07:40:08;;;;;;;6.25;3.92;;;;;;;;;;6247397;22;20361;-64
2021/10/16 07:42:34;;;;;;;5.65;3.70;;;;;;;;;;6247302;22;20015;-64
2021/10/16 07:44:59;;;;;;;6.05;4.03;;;;;;;;;;6247333;22;20032;-64
2021/10/16 07:47:27;;;;;;;6.75;3.97;;;;;;;;;;6247452;22;19992;-64
2021/10/16 07:49:56;;;;;;;4.72;3.70;;;;;;;;;;6247367;22;20356;-64
2021/10/16 07:52:22;;;;;;;6.03;3.65;;;;;;;;;;6247379;22;20364;-64
2021/10/16 07:54:48;;;;;;;5.43;3.80;;;;;;;;;;6246869;23;20069;-64
2021/10/16 07:57:14;;;;;;;8.00;3.67;;;;;;;;;;6246394;23;20004;-64
2021/10/16 07:59:40;;;;;;;6.88;3.75;;;;;;;;;;6247506;22;19996;-63
2021/10/16 08:02:06;;;;;;;6.05;4.07;;;;;;;;;;6247286;23;20012;-63
2021/10/16 08:04:31;;;;;;;6.80;4.65;;;;;;;;;;6245774;23;20000;-64
2021/10/16 08:06:57;;;;;;;7.85;4.22;;;;;;;;;;6247359;23;20030;-64
2021/10/16 08:09:22;;;;;;;8.90;4.10;;;;;;;;;;6245840;23;20003;-63
2021/10/16 08:11:52;;;;;;;8.40;4.63;;;;;;;;;;6245647;23;20004;-67
2021/10/16 08:14:18;;;;;;;5.90;3.95;;;;;;;;;;6247345;22;20026;-66
2021/10/16 08:16:43;;;;;;;7.38;4.38;;;;;;;;;;6247250;23;20056;-67
2021/10/16 08:19:09;;;;;;;7.55;4.75;;;;;;;;;;6245776;23;20328;-67
2021/10/16 08:21:35;;;;;;;7.93;4.57;;;;;;;;;;6245771;23;20033;-66
2021/10/16 08:24:02;;;;;;;7.10;4.32;;;;;;;;;;6247166;23;20004;-66
2021/10/16 08:26:27;;;;;;;7.80;4.50;;;;;;;;;;6246935;22;19996;-66
2021/10/16 08:28:55;;;;;;;6.93;4.55;;;;;;;;;;6245631;23;20066;-66
2021/10/16 08:31:20;;;;;;;9.32;5.03;;;;;;;;;;6245704;23;20003;-66
2021/10/16 08:33:46;;;;;;;5.45;4.57;;;;;;;;;;6247180;23;20004;-66
2021/10/16 08:36:13;;;;;;;7.57;4.40;;;;;;;;;;6246887;22;20055;-66
2021/10/16 08:38:39;;;;;;;5.68;4.40;;;;;;;;;;6247021;23;20042;-66
2021/10/16 08:41:08;;;;;;;7.63;5.20;;;;;;;;;;6246974;22;20027;-66
2021/10/16 08:43:34;;;;;;;8.63;5.03;;;;;;;;;;6247068;22;20008;-66
2021/10/16 08:46:01;;;;;;;5.93;5.32;;;;;;;;;;6247126;22;20119;-66
2021/10/16 08:48:27;;;;;;;8.25;5.80;;;;;;;;;;6246893;23;20105;-66
2021/10/16 08:50:53;;;;;;;7.70;5.97;;;;;;;;;;6247103;22;20046;-66
2021/10/16 08:53:18;;;;;;;9.63;5.93;;;;;;;;;;6246901;22;20008;-66
2021/10/16 08:55:48;;;;;;;7.57;5.32;;;;;;;;;;6246250;22;20016;-66
2021/10/16 08:58:13;;;;;;;7.65;5.53;;;;;;;;;;6246762;22;20008;-66
2021/10/16 09:00:42;;;;;;;10.30;6.20;;;;;;;;;;6246756;22;20057;-65
2021/10/16 09:03:20;;;;;;;8.18;5.93;;;;;;;;;;6246682;22;20008;-65
2021/10/16 09:06:16;;;;;;;10.20;5.63;;;;;;;;;;6244954;23;20083;-65
2021/10/16 09:08:42;;;;;;;7.47;5.05;;;;;;;;;;6226934;22;20032;-65
2021/10/16 09:11:16;;;;;;;8.77;5.38;;;;;;;;;;6245099;23;19996;-65
2021/10/16 09:13:43;;;;;;;9.30;5.75;;;;;;;;;;6246696;22;20004;-65
2021/10/16 09:16:19;;;;;;;8.55;5.65;;;;;;;;;;6246612;22;20003;-65
2021/10/16 09:18:51;;;;;;;8.77;5.93;;;;;;;;;;6246672;22;20090;-66
2021/10/16 09:21:17;;;;;;;7.50;4.88;;;;;;;;;;6246674;23;20006;-66
2021/10/16 09:23:42;;;;;;;4.07;3.65;;;;;;;;;;6245463;22;20333;-66
2021/10/16 09:26:08;;;;;;;7.65;5.22;;;;;;;;;;6244245;22;20451;-66
2021/10/16 09:28:34;;;;;;;6.13;5.10;;;;;;;;;;6245168;22;20007;-65
2021/10/16 09:31:07;;;;;;;5.82;4.93;;;;;;;;;;6245331;22;20004;-64
2021/10/16 09:33:46;;;;;;;7.68;5.20;;;;;;;;;;6245135;23;20106;-64
2021/10/16 09:36:24;;;;;;;6.85;5.95;;;;;;;;;;6245720;23;20028;-63
2021/10/16 09:38:50;;;;;;;9.38;5.68;;;;;;;;;;6245685;22;20356;-68
2021/10/16 09:41:26;;;;;;;9.63;5.00;;;;;;;;;;6244347;23;20018;-70
2021/10/16 09:43:51;;;;;;;6.47;5.85;;;;;;;;;;6244274;23;20008;-71
2021/10/16 09:46:18;;;;;;;7.57;5.30;;;;;;;;;;6244796;23;19999;-70
2021/10/16 09:48:46;;;;;;;9.27;5.85;;;;;;;;;;6245853;23;20043;-71
2021/10/16 09:51:14;;;;;;;7.93;5.20;;;;;;;;;;6246237;22;20783;-71
2021/10/16 09:53:42;;;;;;;8.43;5.63;;;;;;;;;;6246383;22;20360;-71
2021/10/16 09:56:08;;;;;;;9.57;5.70;;;;;;;;;;6246374;22;20012;-72
2021/10/16 09:58:35;;;;;;;6.90;5.40;;;;;;;;;;6246494;23;20008;-71
2021/10/16 10:01:01;;;;;;;7.07;5.20;;;;;;;;;;6246352;22;20000;-68
2021/10/16 10:03:31;;;;;;;9.55;5.53;;;;;;;;;;6246561;22;20051;-67
2021/10/16 10:05:56;;;;;;;6.93;4.43;;;;;;;;;;6246471;22;19992;-67
2021/10/16 10:08:22;;;;;;;6.15;5.15;;;;;;;;;;6246524;22;20064;-67
2021/10/16 10:10:48;;;;;;;6.60;4.70;;;;;;;;;;6246881;22;20077;-67
2021/10/16 10:13:17;;;;;;;6.47;4.53;;;;;;;;;;6246635;22;20050;-67
2021/10/16 10:15:43;;;;;;;5.53;4.75;;;;;;;;;;6246707;22;20006;-67
2021/10/16 10:20:54;;;;;;;7.65;4.55;;;;;;;;;;6246518;23;20054;-68
2021/10/16 10:23:21;;;;;;;6.78;4.70;;;;;;;;;;6246211;22;20439;-67
2021/10/16 10:25:48;;;;;;;5.43;3.80;;;;;;;;;;6246453;23;20019;-67
2021/10/16 10:28:14;;;;;;;6.90;5.00;;;;;;;;;;6246429;22;19993;-68
2021/10/16 10:30:41;;;;;;;4.53;3.80;;;;;;;;;;6246417;22;20027;-68
2021/10/16 10:33:24;;;;;;;8.05;4.57;;;;;;;;;;6246285;22;20054;-68
2021/10/16 10:35:53;;;;;;;6.15;3.92;;;;;;;;;;6246556;23;20004;-67
2021/10/16 10:38:29;;;;;;;5.95;3.78;;;;;;;;;;6244927;23;20007;-67
2021/10/16 10:40:57;;;;;;;25.30;3.80;;;;;;;;;;6244614;23;20011;-69
2021/10/16 10:43:41;;;;;;;7.75;4.43;;;;;;;;;;6244641;23;20003;-68
2021/10/16 10:46:07;;;;;;;10.32;4.65;;;;;;;;;;6246100;23;20328;-68
2021/10/16 10:48:41;;;;;;;7.72;4.32;;;;;;;;;;6246080;22;19999;-68
2021/10/16 10:51:06;;;;;;;6.47;3.65;;;;;;;;;;6245177;23;20004;-67
2021/10/16 10:53:34;;;;;;;6.22;3.75;;;;;;;;;;6244356;23;20007;-67
2021/10/16 10:56:01;;;;;;;3.63;1.88;;;;;;;;;;6245870;22;20020;-67
2021/10/16 10:58:45;;;;;;;7.68;3.50;;;;;;;;;;6246388;22;20340;-67
2021/10/16 11:01:31;;;;;;;5.53;2.95;;;;;;;;;;6248288;23;20005;-67
2021/10/16 11:04:02;;;;;;;3.80;2.08;;;;;;;;;;6248683;23;20038;-68
2021/10/16 11:06:30;;;;;;;5.32;2.83;;;;;;;;;;6248327;23;20005;-68
2021/10/16 11:09:12;;;;;;;7.95;3.17;;;;;;;;;;6248073;22;19992;-68
2021/10/16 11:11:47;;;;;;;5.75;1.77;;;;;;;;;;6247093;23;20008;-68
2021/10/16 11:14:13;;;;;;;9.25;3.30;;;;;;;;;;6248326;22;20058;-68
2021/10/16 11:16:55;;;;;;;2.55;0.77;;;;;;;;;;6249772;23;19996;-68
2021/10/16 11:19:21;;;;;;;4.40;1.75;;;;;;;;;;6247921;22;20082;-68
2021/10/16 11:21:53;;;;;;;6.00;3.13;;;;;;;;;;6248667;22;19996;-68
2021/10/16 11:24:20;;;;;;;4.22;2.40;;;;;;;;;;6246538;23;20035;-69
2021/10/16 11:26:54;;;;;;;3.92;1.88;;;;;;;;;;6247689;22;20428;-68
2021/10/16 11:29:30;;;;;;;8.77;2.70;;;;;;;;;;6246543;23;20094;-68
2021/10/16 11:32:14;;;;;;;7.07;2.67;;;;;;;;;;6247839;23;20091;-68
2021/10/16 11:34:41;;;;;;;9.00;3.35;;;;;;;;;;6247889;22;20057;-68
2021/10/16 11:37:06;;;;;;;9.60;2.95;;;;;;;;;;6247769;22;20075;-67
2021/10/16 11:39:33;;;;;;;3.42;1.95;;;;;;;;;;6246902;23;20416;-67
2021/10/16 11:42:00;;;;;;;2.72;1.98;;;;;;;;;;6248260;22;20000;-67
2021/10/16 11:44:26;;;;;;;6.40;3.28;;;;;;;;;;6247788;22;20004;-67
2021/10/16 11:47:05;;;;;;;7.60;3.47;;;;;;;;;;6247871;22;20003;-67
2021/10/16 11:49:30;;;;;;;8.05;4.25;;;;;;;;;;6246333;23;20000;-55
2021/10/16 11:51:56;;;;;;;5.88;3.38;;;;;;;;;;6247864;22;20356;-67
2021/10/16 11:54:22;;;;;;;5.45;3.30;;;;;;;;;;6247365;23;20079;-62
2021/10/16 11:56:57;;;;;;;6.80;3.60;;;;;;;;;;6247762;23;20010;-62
2021/10/16 11:59:23;;;;;;;9.07;4.05;;;;;;;;;;6247883;22;20000;-62
2021/10/16 12:01:48;;;;;;;7.13;3.85;;;;;;;;;;6247556;22;20002;-62
2021/10/16 12:04:14;;;;;;;4.82;3.50;;;;;;;;;;6247655;22;20582;-62
2021/10/16 12:06:41;;;;;;;7.55;3.80;;;;;;;;;;6247603;23;20426;-62
2021/10/16 12:09:12;;;;;;;4.55;2.72;;;;;;;;;;6247872;22;20031;-62
2021/10/16 12:11:38;;;;;;;5.93;3.17;;;;;;;;;;6247246;23;20080;-62
2021/10/16 12:14:09;;;;;;;4.90;3.00;;;;;;;;;;6247218;22;20000;-62
2021/10/16 12:16:35;;;;;;;4.05;2.30;;;;;;;;;;6247329;23;20019;-61
2021/10/16 12:19:02;;;;;;;7.85;2.60;;;;;;;;;;6246912;22;20332;-60
2021/10/16 12:21:32;;;;;;;3.13;1.50;;;;;;;;;;6246157;23;20087;-60
2021/10/16 12:23:58;;;;;;;5.17;1.77;;;;;;;;;;6247591;22;20083;-60
2021/10/16 12:26:29;;;;;;;6.30;1.70;;;;;;;;;;6247212;23;20262;-60
2021/10/16 12:28:55;;;;;;;6.95;3.08;;;;;;;;;;6247588;23;20011;-60
2021/10/16 12:31:21;;;;;;;8.55;2.40;;;;;;;;;;6247479;22;19997;-62
2021/10/16 12:33:58;;;;;;;7.20;2.85;;;;;;;;;;6245737;23;20008;-61
2021/10/16 12:36:25;;;;;;;7.38;3.65;;;;;;;;;;6247379;22;20004;-61
2021/10/16 12:38:51;;;;;;;4.93;2.38;;;;;;;;;;6247122;22;20063;-61
2021/10/16 12:41:40;;;;;;;6.95;3.15;;;;;;;;;;6247166;22;20008;-60
2021/10/16 12:44:11;;;;;;;8.27;3.50;;;;;;;;;;6235126;23;20046;-61
2021/10/16 12:46:37;;;;;;;5.22;3.17;;;;;;;;;;6245533;23;20008;-68
2021/10/16 12:49:02;;;;;;;6.63;3.20;;;;;;;;;;6247318;23;20003;-68
2021/10/16 12:51:41;;;;;;;5.25;3.00;;;;;;;;;;6247383;22;20005;-62
2021/10/16 12:54:07;;;;;;;7.45;3.05;;;;;;;;;;6247236;22;20314;-62
2021/10/16 12:56:32;;;;;;;6.95;3.53;;;;;;;;;;6246964;22;20015;-61
2021/10/16 12:58:59;;;;;;;6.18;3.00;;;;;;;;;;6245975;23;20325;-61
2021/10/16 13:01:28;;;;;;;6.85;3.53;;;;;;;;;;6246881;22;19993;-62
2021/10/16 13:03:54;;;;;;;5.82;3.13;;;;;;;;;;6247018;23;20133;-63
2021/10/16 13:06:19;;;;;;;4.93;2.92;;;;;;;;;;6247161;22;20428;-62
2021/10/16 13:08:50;;;;;;;3.90;2.60;;;;;;;;;;6247040;22;20008;-62
2021/10/16 13:11:16;;;;;;;6.38;3.13;;;;;;;;;;6246400;23;20046;-62
2021/10/16 13:13:42;;;;;;;5.47;2.85;;;;;;;;;;6246820;22;20004;-62
2021/10/16 13:16:08;;;;;;;4.45;2.92;;;;;;;;;;6245371;23;20008;-62
2021/10/16 13:18:34;;;;;;;5.88;2.78;;;;;;;;;;6246626;22;19996;-68
2021/10/16 13:21:00;;;;;;;4.85;2.60;;;;;;;;;;6246537;23;20004;-62
2021/10/16 13:23:25;;;;;;;5.40;2.63;;;;;;;;;;6246384;22;20047;-63
2021/10/16 13:25:51;;;;;;;5.20;2.83;;;;;;;;;;6246664;22;20000;-72
2021/10/16 13:28:16;;;;;;;5.30;3.15;;;;;;;;;;6245112;23;19996;-67
2021/10/16 13:30:42;;;;;;;9.98;5.75;;;;;;;;;;6245292;23;20000;-59
2021/10/16 13:33:08;;;;;;;5.65;3.72;;;;;;;;;;6245145;23;20093;-60
2021/10/16 13:35:33;;;;;;;7.18;2.97;;;;;;;;;;6246799;23;20004;-60
2021/10/16 13:37:59;;;;;;;5.47;2.90;;;;;;;;;;6246581;23;20027;-59
2021/10/16 13:40:25;;;;;;;4.70;2.60;;;;;;;;;;6246556;23;20095;-59
2021/10/16 13:42:50;;;;;;;8.23;4.50;;;;;;;;;;6246595;22;20000;-59
2021/10/16 13:45:17;;;;;;;7.65;3.72;;;;;;;;;;6246865;23;20340;-59
2021/10/16 13:47:42;;;;;;;5.60;3.55;;;;;;;;;;6246949;22;20000;-59
2021/10/16 13:50:09;;;;;;;6.68;3.17;;;;;;;;;;6245632;22;20475;-59
2021/10/16 13:52:34;;;;;;;5.10;3.22;;;;;;;;;;6246261;22;20004;-59
2021/10/16 13:55:02;;;;;;;7.63;3.70;;;;;;;;;;6246075;23;20008;-59
2021/10/16 13:57:27;;;;;;;5.07;2.50;;;;;;;;;;6246095;22;20008;-59
2021/10/16 13:59:53;;;;;;;6.60;3.08;;;;;;;;;;6246417;22;20401;-59
2021/10/16 14:02:19;;;;;;;7.68;2.85;;;;;;;;;;6246602;23;20008;-59
2021/10/16 14:04:45;;;;;;;7.20;3.10;;;;;;;;;;6246445;22;20427;-59
2021/10/16 14:07:11;;;;;;;6.68;2.47;;;;;;;;;;6244730;23;20005;-59
2021/10/16 14:09:37;;;;;;;6.20;2.53;;;;;;;;;;6246153;22;20003;-59
2021/10/16 14:12:02;;;;;;;3.33;2.67;;;;;;;;;;6246268;23;20429;-59
2021/10/16 14:14:28;;;;;;;4.88;3.33;;;;;;;;;;6246365;22;20413;-60
2021/10/16 14:16:53;;;;;;;4.68;2.70;;;;;;;;;;6246122;23;20007;-61
2021/10/16 14:19:19;;;;;;;7.28;3.70;;;;;;;;;;6246596;22;20019;-62
2021/10/16 14:21:44;;;;;;;8.27;3.33;;;;;;;;;;6244927;23;20438;-61
2021/10/16 14:24:11;;;;;;;5.63;2.85;;;;;;;;;;6246263;22;19996;-61
2021/10/16 14:26:36;;;;;;;6.22;3.00;;;;;;;;;;6244542;23;20008;-61
2021/10/16 14:29:02;;;;;;;4.03;2.45;;;;;;;;;;6246307;23;20002;-61
2021/10/16 14:31:28;;;;;;;4.20;2.72;;;;;;;;;;6246187;22;20051;-61
2021/10/16 14:33:54;;;;;;;4.68;2.40;;;;;;;;;;6245909;22;20004;-61
2021/10/16 14:36:19;;;;;;;5.90;2.53;;;;;;;;;;6246383;23;20061;-61
2021/10/16 14:38:45;;;;;;;5.00;3.00;;;;;;;;;;6245961;23;20031;-61
2021/10/16 14:41:12;;;;;;;4.20;2.67;;;;;;;;;;6246215;23;20008;-62
2021/10/16 14:43:38;;;;;;;5.97;3.10;;;;;;;;;;6244557;23;20000;-61
2021/10/16 14:46:04;;;;;;;4.93;3.05;;;;;;;;;;6246036;22;20011;-61
2021/10/16 14:48:29;;;;;;;9.55;4.50;;;;;;;;;;6246050;23;20313;-62